createdAt,value
2018-12-22T00:02:09.662Z,97510.28
2018-12-22T00:04:43.075Z,97506.87
2018-12-22T00:07:17.046Z,97511.02
2018-12-22T00:09:53.571Z,97514.03
2018-12-22T00:12:30.356Z,97507.38
2018-12-22T00:15:08.546Z,97502.09
2018-12-22T00:17:41.622Z,97502.00
2018-12-22T00:20:15.256Z,97488.63
2018-12-22T00:22:48.819Z,97492.52
2018-12-22T00:25:25.071Z,97491.18
2018-12-22T00:27:57.255Z,97483.80
2018-12-22T00:30:33.508Z,97483.30
2018-12-22T00:33:06.467Z,97485.78
2018-12-22T00:35:42.711Z,97493.14
2018-12-22T00:38:16.430Z,97488.14
2018-12-22T00:40:49.620Z,97506.41
2018-12-22T00:43:26.805Z,97502.50
2018-12-22T00:46:03.063Z,97501.20
2018-12-22T00:48:39.714Z,97507.27
2018-12-22T00:51:16.151Z,97519.48
2018-12-22T00:53:48.409Z,97540.36
2018-12-22T00:56:25.184Z,97517.03
2018-12-22T00:59:02.210Z,97517.05
2018-12-22T01:01:38.979Z,97496.25
2018-12-22T01:04:17.743Z,97502.20
2018-12-22T01:06:55.285Z,97514.34
2018-12-22T01:09:29.032Z,97515.16
2018-12-22T01:12:01.274Z,97525.63
2018-12-22T01:14:38.386Z,97512.80
2018-12-22T01:17:15.771Z,97517.15
2018-12-22T01:19:52.652Z,97511.88
2018-12-22T01:22:25.435Z,97513.67
2018-12-22T01:25:04.084Z,97514.97
2018-12-22T01:27:41.172Z,97531.87
2018-12-22T01:30:18.358Z,97524.77
2018-12-22T01:32:52.659Z,97515.33
2018-12-22T01:35:26.198Z,97512.27
2018-12-22T01:38:03.050Z,97506.66
2018-12-22T01:40:40.132Z,97500.97
2018-12-22T01:43:14.233Z,97507.98
2018-12-22T01:45:47.048Z,97497.53
2018-12-22T01:48:19.671Z,97492.14
2018-12-22T01:50:52.633Z,97480.04
2018-12-22T01:53:25.758Z,97489.61
2018-12-22T01:56:01.857Z,97494.75
2018-12-22T01:58:34.704Z,97500.73
2018-12-22T02:01:07.756Z,97500.70
2018-12-22T02:03:44.968Z,97501.16
2018-12-22T02:06:23.697Z,97495.77
2018-12-22T02:08:56.253Z,97492.16
2018-12-22T02:11:30.258Z,97502.64
2018-12-22T02:14:02.584Z,97502.41
2018-12-22T02:16:35.518Z,97498.82
2018-12-22T02:19:12.073Z,97500.96
2018-12-22T02:21:50.208Z,97499.24
2018-12-22T02:24:23.482Z,97478.58
2018-12-22T02:26:56.226Z,97488.67
2018-12-22T02:29:33.222Z,97488.02
2018-12-22T02:32:06.764Z,97487.55
2018-12-22T02:34:39.139Z,97482.17
2018-12-22T02:37:16.428Z,97487.77
2018-12-22T02:39:49.292Z,97489.52
2018-12-22T02:42:22.682Z,97496.02
2018-12-22T02:44:55.549Z,97492.36
2018-12-22T02:47:28.628Z,97501.77
2018-12-22T02:50:00.007Z,97480.93
2018-12-22T02:52:32.830Z,97495.55
2018-12-22T02:55:06.590Z,97495.58
2018-12-22T02:57:39.664Z,97503.84
2018-12-22T03:00:12.873Z,97493.40
2018-12-22T03:02:47.056Z,97485.58
2018-12-22T03:05:19.937Z,97488.13
2018-12-22T03:07:54.416Z,97490.78
2018-12-22T03:10:27.301Z,97499.12
2018-12-22T03:13:00.545Z,97471.73
2018-12-22T03:15:34.652Z,97483.44
2018-12-22T03:18:07.346Z,97500.23
2018-12-22T03:20:39.679Z,97491.98
2018-12-22T03:23:12.205Z,97489.83
2018-12-22T03:25:45.043Z,97479.89
2018-12-22T03:28:23.541Z,97473.70
2018-12-22T03:30:57.269Z,97487.13
2018-12-22T03:33:30.577Z,97493.94
2018-12-22T03:36:03.381Z,97490.02
2018-12-22T03:38:36.269Z,97495.17
2018-12-22T03:41:11.382Z,97491.64
2018-12-22T03:43:45.476Z,97491.64
2018-12-22T03:46:18.852Z,97480.46
2018-12-22T03:48:51.899Z,97486.41
2018-12-22T03:51:28.445Z,97485.11
2018-12-22T03:54:01.470Z,97492.86
2018-12-22T03:56:34.703Z,97494.86
2018-12-22T03:59:12.995Z,97493.06
2018-12-22T04:01:43.720Z,97505.97
2018-12-22T04:04:16.860Z,97517.66
2018-12-22T04:06:49.807Z,97494.08
2018-12-22T04:09:23.099Z,97467.67
2018-12-22T04:12:00.613Z,97494.45
2018-12-22T04:14:33.461Z,97514.20
2018-12-22T04:17:06.578Z,97502.37
2018-12-22T04:19:40.124Z,97509.33
2018-12-22T04:22:12.697Z,97498.41
2018-12-22T04:24:48.984Z,97502.39
2018-12-22T04:27:22.357Z,97501.00
2018-12-22T04:29:55.552Z,97506.06
2018-12-22T04:32:28.992Z,97500.86
2018-12-22T04:35:01.357Z,97512.59
2018-12-22T04:37:33.965Z,97504.29
2018-12-22T04:40:10.714Z,97489.98
2018-12-22T04:42:41.902Z,97498.34
2018-12-22T04:45:15.925Z,97516.63
2018-12-22T04:47:54.442Z,97527.22
2018-12-22T04:50:28.732Z,97510.80
2018-12-22T04:53:06.319Z,97504.66
2018-12-22T04:55:41.001Z,97502.41
2018-12-22T04:58:15.012Z,97514.91
2018-12-22T05:00:48.420Z,97517.53
2018-12-22T05:03:21.383Z,97507.98
2018-12-22T05:05:53.636Z,97518.31
2018-12-22T05:08:26.624Z,97516.57
2018-12-22T05:11:05.168Z,97508.97
2018-12-22T05:13:37.727Z,97510.61
2018-12-22T05:16:14.908Z,97509.42
2018-12-22T05:18:48.305Z,97495.19
2018-12-22T05:21:21.036Z,97501.64
2018-12-22T05:23:58.332Z,97508.61
2018-12-22T05:26:34.968Z,97503.11
2018-12-22T05:29:11.547Z,97494.96
2018-12-22T05:31:44.131Z,97490.64
2018-12-22T05:34:17.545Z,97495.72
2018-12-22T05:36:54.190Z,97495.50
2018-12-22T05:39:27.506Z,97486.84
2018-12-22T05:42:00.327Z,97485.58
2018-12-22T05:44:37.136Z,97490.82
2018-12-22T05:47:14.409Z,97491.18
2018-12-22T05:49:47.890Z,97491.69
2018-12-22T05:52:24.916Z,97502.47
2018-12-22T05:55:02.072Z,97497.00
2018-12-22T05:57:40.846Z,97504.48
2018-12-22T06:00:17.467Z,97496.42
2018-12-22T06:02:50.634Z,97491.15
2018-12-22T06:05:23.745Z,97485.89
2018-12-22T06:08:00.067Z,97484.64
2018-12-22T06:10:33.262Z,97485.97
2018-12-22T06:13:06.425Z,97492.50
2018-12-22T06:15:39.813Z,97490.90
2018-12-22T06:18:12.475Z,97485.28
2018-12-22T06:20:47.242Z,97496.53
2018-12-22T06:23:19.872Z,97488.44
2018-12-22T06:25:53.854Z,97495.01
2018-12-22T06:28:27.273Z,97490.36
2018-12-22T06:31:00.087Z,97493.33
2018-12-22T06:33:33.159Z,97486.31
2018-12-22T06:36:10.223Z,97471.41
2018-12-22T06:38:42.361Z,97479.16
2018-12-22T06:41:18.767Z,97484.84
2018-12-22T06:43:55.945Z,97482.27
2018-12-22T06:46:32.962Z,97486.95
2018-12-22T06:49:09.010Z,97488.36
2018-12-22T06:51:41.189Z,97488.10
2018-12-22T06:54:14.262Z,97492.69
2018-12-22T06:56:47.485Z,97492.22
2018-12-22T06:59:23.875Z,97495.58
2018-12-22T07:01:57.259Z,97501.11
2018-12-22T07:04:30.029Z,97496.84
2018-12-22T07:07:02.809Z,97493.27
2018-12-22T07:09:35.372Z,97482.00
2018-12-22T07:12:08.142Z,97481.06
2018-12-22T07:14:45.782Z,97477.86
2018-12-22T07:17:18.524Z,97489.11
2018-12-22T07:19:51.055Z,97489.41
2018-12-22T07:22:24.221Z,97494.88
2018-12-22T07:24:57.205Z,97500.81
2018-12-22T07:27:33.609Z,97511.98
2018-12-22T07:30:08.975Z,97515.66
2018-12-22T07:32:41.951Z,97507.80
2018-12-22T07:35:18.206Z,97505.50
2018-12-22T07:37:53.166Z,97495.50
2018-12-22T07:40:29.605Z,97508.67
2018-12-22T07:43:06.660Z,97503.08
2018-12-22T07:45:44.086Z,97484.53
2018-12-22T07:48:16.975Z,97502.66
2018-12-22T07:50:50.154Z,97526.54
2018-12-22T07:53:21.638Z,97504.18
2018-12-22T07:55:55.088Z,97532.09
2018-12-22T07:58:28.635Z,97525.05
2018-12-22T08:01:05.116Z,97520.62
2018-12-22T08:03:35.993Z,97525.02
2018-12-22T08:06:08.992Z,97504.20
2018-12-22T08:08:40.550Z,97519.77
2018-12-22T08:31:23.560Z,97510.88
2018-12-22T08:33:56.648Z,97500.65
2018-12-22T08:36:31.429Z,97487.53
2018-12-22T08:39:08.995Z,97488.34
2018-12-22T08:41:43.013Z,97492.39
2018-12-22T08:44:16.472Z,97492.95
2018-12-22T08:46:53.551Z,97483.14
2018-12-22T08:49:27.257Z,97490.30
2018-12-22T08:51:58.751Z,97489.83
2018-12-22T08:54:32.791Z,97498.73
2018-12-22T08:57:09.834Z,97488.97
2018-12-22T08:59:46.879Z,97501.57
2018-12-22T09:02:20.056Z,97492.13
2018-12-22T09:04:53.352Z,97486.22
2018-12-22T09:07:26.173Z,97481.74
2018-12-22T09:09:58.728Z,97496.39
2018-12-22T09:12:31.722Z,97482.19
2018-12-22T09:15:05.051Z,97474.67
2018-12-22T09:17:42.330Z,97472.75
2018-12-22T09:20:20.822Z,97472.00
2018-12-22T09:22:53.156Z,97457.70
2018-12-22T09:25:26.145Z,97456.34
2018-12-22T09:27:59.113Z,97458.13
2018-12-22T09:43:08.928Z,97476.00
2018-12-22T09:45:42.890Z,97468.30
2018-12-22T09:48:19.449Z,97461.98
2018-12-22T09:50:53.476Z,97478.70
2018-12-22T09:53:24.297Z,97470.72
2018-12-22T09:56:00.917Z,97471.22
2018-12-22T09:58:34.328Z,97487.24
2018-12-22T10:01:09.467Z,97464.99
2018-12-22T10:03:42.139Z,97444.95
2018-12-22T10:06:14.628Z,97462.47
2018-12-22T10:08:45.692Z,97440.45
2018-12-22T10:11:19.487Z,97411.59
2018-12-22T10:13:52.036Z,97428.12
2018-12-22T10:16:28.387Z,97438.72
2018-12-22T10:18:58.600Z,97409.75
2018-12-22T10:21:31.721Z,97387.89
2018-12-22T10:24:08.006Z,97413.03
2018-12-22T10:26:41.301Z,97438.38
2018-12-22T10:29:12.238Z,97390.82
2018-12-22T10:31:43.201Z,97411.97
2018-12-22T10:34:16.390Z,97411.00
2018-12-22T10:36:48.761Z,97398.02
2018-12-22T10:39:22.035Z,97407.07
2018-12-22T10:41:53.137Z,97416.48
2018-12-22T10:44:30.294Z,97398.92
2018-12-22T10:47:03.390Z,97422.08
2018-12-22T10:49:39.891Z,97415.98
2018-12-22T10:52:12.854Z,97413.06
2018-12-22T10:54:45.711Z,97401.58
2018-12-22T10:57:18.855Z,97399.58
2018-12-22T10:59:51.122Z,97405.96
2018-12-22T11:02:23.809Z,97410.47
2018-12-22T11:04:56.542Z,97402.34
2018-12-22T11:07:28.687Z,97411.29
2018-12-22T11:10:01.642Z,97419.45
2018-12-22T11:12:38.034Z,97409.94
2018-12-22T11:15:15.339Z,97417.37
2018-12-22T11:17:51.954Z,97412.45
2018-12-22T11:20:22.479Z,97403.42
2018-12-22T11:22:55.648Z,97399.59
2018-12-22T11:25:29.199Z,97402.63
2018-12-22T11:28:02.715Z,97404.20
2018-12-22T11:30:41.976Z,97420.08
2018-12-22T11:33:14.676Z,97425.88
2018-12-22T11:35:52.516Z,97426.63
2018-12-22T11:38:25.351Z,97417.02
2018-12-22T11:40:58.428Z,97418.20
2018-12-22T11:43:37.006Z,97409.00
2018-12-22T11:49:49.336Z,97399.63
2018-12-22T11:52:20.309Z,97387.41
2018-12-22T11:54:53.997Z,97383.14
2018-12-22T11:57:27.055Z,97383.77
2018-12-22T12:00:00.360Z,97382.67
2018-12-22T12:02:33.620Z,97411.03
2018-12-22T12:05:11.792Z,97406.06
2018-12-22T12:07:44.431Z,97411.02
2018-12-22T12:10:17.581Z,97418.07
2018-12-22T12:12:54.965Z,97419.63
2018-12-22T12:15:45.220Z,97403.93
2018-12-22T12:19:32.366Z,97418.30
2018-12-22T12:22:05.072Z,97387.41
2018-12-22T12:24:42.760Z,97388.88
2018-12-22T12:27:20.163Z,97391.23
2018-12-22T12:29:53.174Z,97377.64
2018-12-22T12:32:29.979Z,97369.48
2018-12-22T12:35:09.815Z,97377.11
2018-12-22T12:37:43.630Z,97375.42
2018-12-22T12:40:16.069Z,97363.71
2018-12-22T12:42:47.438Z,97362.61
2018-12-22T12:45:20.613Z,97370.14
2018-12-22T12:47:53.611Z,97379.75
2018-12-22T12:50:26.423Z,97386.14
2018-12-22T12:52:59.493Z,97389.84
2018-12-22T12:55:36.054Z,97393.84
2018-12-22T12:58:09.409Z,97410.04
2018-12-22T13:00:42.757Z,97417.70
2018-12-22T13:03:15.919Z,97450.55
2018-12-22T13:05:48.413Z,97456.54
2018-12-22T13:08:22.558Z,97446.75
2018-12-22T13:10:55.475Z,97418.95
2018-12-22T13:13:52.644Z,97414.78
2018-12-22T13:16:26.295Z,97408.27
2018-12-22T13:18:57.446Z,97395.67
2018-12-22T13:21:30.278Z,97390.71
2018-12-22T13:24:03.470Z,97388.39
2018-12-22T13:26:37.195Z,97389.91
2018-12-22T13:29:10.801Z,97383.89
2018-12-22T13:31:44.781Z,97390.14
2018-12-22T13:34:18.487Z,97402.47
2018-12-22T13:36:49.481Z,97402.18
2018-12-22T13:39:26.635Z,97410.86
2018-12-22T13:42:02.376Z,97410.65
2018-12-22T13:44:36.126Z,97410.31
2018-12-22T13:47:09.250Z,97421.59
2018-12-22T13:49:41.960Z,97423.00
2018-12-22T13:52:14.155Z,97416.28
2018-12-22T13:54:47.446Z,97423.38
2018-12-22T13:57:24.022Z,97409.77
2018-12-22T13:59:59.431Z,97409.58
2018-12-22T14:02:36.499Z,97420.43
2018-12-22T14:05:19.054Z,97412.96
2018-12-22T14:07:56.679Z,97416.01
2018-12-22T14:10:34.089Z,97407.50
2018-12-22T14:13:06.801Z,97408.81
2018-12-22T14:15:52.609Z,97399.38
2018-12-22T14:18:54.776Z,97420.30
2018-12-22T14:21:26.483Z,97407.47
2018-12-22T14:24:18.037Z,97412.88
2018-12-22T14:26:51.300Z,97434.72
2018-12-22T14:29:24.006Z,97445.05
2018-12-22T14:32:00.875Z,97455.53
2018-12-22T14:36:44.430Z,97458.72
2018-12-22T14:39:17.571Z,97478.67
2018-12-22T14:41:50.681Z,97484.13
2018-12-22T14:44:24.485Z,97482.70
2018-12-22T14:46:54.800Z,97478.20
2018-12-22T14:49:27.441Z,97473.86
2018-12-22T14:52:00.546Z,97473.33
2018-12-22T14:54:37.396Z,97468.13
2018-12-22T14:57:11.963Z,97472.14
2018-12-22T14:59:45.783Z,97494.55
2018-12-22T15:02:18.738Z,97494.24
2018-12-22T15:04:51.454Z,97487.59
2018-12-22T15:07:23.506Z,97495.23
2018-12-22T15:09:57.936Z,97493.03
2018-12-22T15:12:28.955Z,97486.94
2018-12-22T15:15:01.941Z,97503.52
2018-12-22T15:17:35.095Z,97508.77
2018-12-22T15:20:13.395Z,97509.73
2018-12-22T15:22:46.349Z,97512.31
2018-12-22T15:25:19.850Z,97534.73
2018-12-22T15:27:52.835Z,97536.81
2018-12-22T15:30:25.775Z,97537.25
2018-12-22T15:33:02.086Z,97522.66
2018-12-22T15:35:34.376Z,97528.36
2018-12-22T15:38:08.718Z,97526.63
2018-12-22T15:40:43.355Z,97529.02
2018-12-22T15:43:16.941Z,97534.14
2018-12-22T15:45:49.449Z,97539.34
2018-12-22T15:48:22.544Z,97548.59
2018-12-22T15:50:55.732Z,97552.80
2018-12-22T15:53:30.780Z,97560.19
2018-12-22T15:56:03.881Z,97553.64
2018-12-22T15:58:36.572Z,97568.77
2018-12-22T16:01:07.645Z,97564.16
2018-12-22T16:03:45.780Z,97576.47
2018-12-22T16:06:27.312Z,97582.28
2018-12-22T16:09:06.612Z,97588.81
2018-12-22T16:11:39.426Z,97586.20
2018-12-22T16:14:12.531Z,97600.14
2018-12-22T16:16:54.531Z,97593.64
2018-12-22T16:19:28.067Z,97589.84
2018-12-22T16:22:00.979Z,97593.97
2018-12-22T16:24:37.406Z,97586.05
2018-12-22T16:27:10.873Z,97593.67
2018-12-22T16:29:45.639Z,97590.75
2018-12-22T16:32:19.587Z,97585.27
2018-12-22T16:34:52.679Z,97599.58
2018-12-22T16:37:29.026Z,97590.80
2018-12-22T16:40:02.196Z,97605.73
2018-12-22T16:42:34.443Z,97613.05
2018-12-22T16:45:10.731Z,97619.76
2018-12-22T16:47:47.395Z,97619.22
2018-12-22T16:50:20.133Z,97611.86
2018-12-22T16:52:54.180Z,97622.95
2018-12-22T16:55:27.999Z,97625.53
2018-12-22T16:58:06.701Z,97633.31
2018-12-22T17:00:50.768Z,97633.07
2018-12-22T17:03:23.390Z,97640.67
2018-12-22T17:16:03.172Z,97637.20
2018-12-22T17:18:33.561Z,97645.75
2018-12-22T17:21:33.925Z,97643.19
2018-12-22T17:24:18.517Z,97639.87
2018-12-22T17:26:50.659Z,97662.11
2018-12-22T17:29:23.454Z,97680.55
2018-12-22T17:31:57.248Z,97682.14
2018-12-22T17:34:29.661Z,97696.28
2018-12-22T17:37:02.616Z,97711.42
2018-12-22T17:39:36.796Z,97720.09
2018-12-22T17:42:10.209Z,97728.38
2018-12-22T17:44:43.477Z,97732.29
2018-12-22T17:47:16.203Z,97744.49
2018-12-22T17:49:49.285Z,97755.17
2018-12-22T17:52:22.051Z,97756.16
2018-12-22T17:54:53.334Z,97770.78
2018-12-22T17:57:26.733Z,97768.52
2018-12-22T17:59:59.869Z,97773.35
2018-12-22T18:02:36.069Z,97777.39
2018-12-22T18:05:10.456Z,97757.75
2018-12-22T18:07:43.182Z,97754.41
2018-12-22T18:10:14.426Z,97752.00
2018-12-22T18:12:47.702Z,97762.98
2018-12-22T18:15:22.802Z,97746.97
2018-12-22T18:17:55.043Z,97731.05
2018-12-22T18:20:28.036Z,97730.81
2018-12-22T18:23:01.249Z,97731.02
2018-12-22T18:25:34.378Z,97739.33
2018-12-22T18:28:06.661Z,97725.35
2018-12-22T18:30:39.429Z,97741.84
2018-12-22T18:33:11.819Z,97744.69
2018-12-22T18:35:44.434Z,97743.38
2018-12-22T18:38:17.158Z,97750.09
2018-12-22T18:40:49.364Z,97744.54
2018-12-22T18:43:22.360Z,97751.83
2018-12-22T18:45:55.408Z,97750.55
2018-12-22T18:48:32.335Z,97754.25
2018-12-22T18:51:06.057Z,97761.08
2018-12-22T18:53:39.905Z,97766.32
2018-12-22T18:56:16.173Z,97770.28
2018-12-22T18:58:54.143Z,97775.94
2018-12-22T19:01:27.500Z,97777.50
2018-12-22T19:04:04.697Z,97778.06
2018-12-22T19:06:36.956Z,97801.67
2018-12-22T19:09:15.675Z,97793.77
2018-12-22T19:11:48.717Z,97792.50
2018-12-22T19:14:25.008Z,97787.30
2018-12-22T19:17:01.294Z,97794.32
2018-12-22T19:19:34.499Z,97793.70
2018-12-22T19:22:07.459Z,97792.28
2018-12-22T19:24:38.602Z,97799.63
2018-12-22T19:27:16.623Z,97799.98
2018-12-22T19:29:48.843Z,97797.75
2018-12-22T19:32:21.959Z,97807.97
2018-12-22T19:34:55.481Z,97808.56
2018-12-22T19:37:28.369Z,97791.17
2018-12-22T19:40:02.320Z,97793.19
2018-12-22T19:42:34.939Z,97787.16
2018-12-22T19:45:08.747Z,97788.97
2018-12-22T19:47:45.068Z,97791.83
2018-12-22T19:50:18.666Z,97807.80
2018-12-22T19:52:49.769Z,97802.77
2018-12-22T19:55:22.827Z,97804.72
2018-12-22T19:57:54.971Z,97809.38
2018-12-22T20:00:29.179Z,97809.03
2018-12-22T20:03:02.092Z,97815.22
2018-12-22T20:05:34.299Z,97819.79
2018-12-22T20:08:06.532Z,97821.88
2018-12-22T20:10:38.716Z,97830.34
2018-12-22T20:13:11.190Z,97824.27
2018-12-22T20:15:44.305Z,97822.48
2018-12-22T20:18:16.584Z,97823.39
2018-12-22T20:20:49.974Z,97827.77
2018-12-22T20:23:22.835Z,97828.17
2018-12-22T20:25:55.351Z,97827.50
2018-12-22T20:28:29.566Z,97820.24
2018-12-22T20:31:05.781Z,97825.19
2018-12-22T20:33:38.721Z,97828.07
2018-12-22T20:36:16.076Z,97831.23
2018-12-22T20:38:48.572Z,97827.72
2018-12-22T20:41:19.560Z,97810.48
2018-12-22T20:43:52.532Z,97789.26
2018-12-22T20:46:22.699Z,97774.53
2018-12-22T20:48:54.929Z,97800.79
2018-12-22T20:51:32.868Z,97806.86
2018-12-22T20:54:09.122Z,97821.44
2018-12-22T20:56:42.423Z,97814.09
2018-12-22T20:59:15.432Z,97813.97
2018-12-22T21:01:51.742Z,97830.98
2018-12-22T21:04:28.035Z,97846.14
2018-12-22T21:07:01.045Z,97856.73
2018-12-22T21:09:32.304Z,97846.19
2018-12-22T21:12:05.047Z,97872.97
2018-12-22T21:14:35.438Z,97871.68
2018-12-22T21:17:06.550Z,97860.75
2018-12-22T21:19:39.538Z,97874.70
2018-12-22T21:22:13.478Z,97901.04
2018-12-22T21:24:45.914Z,97911.45
2018-12-22T21:27:23.174Z,97922.50
2018-12-22T21:29:53.482Z,97925.82
2018-12-22T21:32:30.941Z,97928.84
2018-12-22T21:35:04.216Z,97917.15
2018-12-22T21:37:37.168Z,97920.53
2018-12-22T21:40:10.202Z,97916.53
2018-12-22T21:42:43.498Z,97920.02
2018-12-22T21:45:16.575Z,97923.87
2018-12-22T21:47:49.661Z,97922.59
2018-12-22T21:50:22.893Z,97922.63
2018-12-22T21:52:56.192Z,97932.39
2018-12-22T21:55:28.979Z,97943.34
2018-12-22T21:58:01.976Z,97940.41
2018-12-22T22:00:38.198Z,97951.36
2018-12-22T22:03:15.149Z,97945.27
2018-12-22T22:05:46.372Z,97952.34
2018-12-22T22:08:22.827Z,97966.70
2018-12-22T22:10:54.100Z,97965.20
2018-12-22T22:13:27.385Z,97953.97
2018-12-22T22:16:00.654Z,97961.22
2018-12-22T22:18:31.560Z,97960.89
2018-12-22T22:21:08.458Z,97970.47
2018-12-22T22:23:41.024Z,97978.53
2018-12-22T22:26:17.482Z,97974.19
2018-12-22T22:28:50.685Z,97960.64
2018-12-22T22:31:23.757Z,97973.03
2018-12-22T22:33:56.781Z,97972.78
2018-12-22T22:36:29.817Z,97981.22
2018-12-22T22:39:04.309Z,97988.59
2018-12-22T22:41:40.716Z,98002.13
2018-12-22T22:44:13.744Z,98000.02
2018-12-22T22:46:46.692Z,97993.07
2018-12-22T22:49:20.026Z,97987.12
2018-12-22T22:51:56.442Z,97975.41
2018-12-22T22:54:28.667Z,97970.77
2018-12-22T22:57:04.925Z,97955.48
2018-12-22T22:59:41.480Z,97951.02
2018-12-22T23:02:14.305Z,97953.16
2018-12-22T23:04:54.428Z,97952.08
2018-12-22T23:07:27.744Z,97947.39
2018-12-22T23:10:00.385Z,97933.21
2018-12-22T23:12:33.481Z,97930.98
2018-12-22T23:15:11.665Z,97924.01
2018-12-22T23:17:43.410Z,97921.73
2018-12-22T23:20:16.021Z,97919.94
2018-12-22T23:22:49.443Z,97919.75
2018-12-22T23:25:27.120Z,97917.59
2018-12-22T23:43:03.665Z,97906.89
2018-12-22T23:45:36.180Z,97897.77
2018-12-22T23:48:13.295Z,97885.60
2018-12-22T23:50:46.427Z,97895.80
2018-12-22T23:53:19.638Z,97907.32
2018-12-22T23:55:52.833Z,97917.34
2018-12-22T23:58:25.810Z,97917.30
